Time;durP1;ratioP1;P1;durP2;ratioP2;P2;SDS_P1;SDS_P2;PMS_P1;PMS_P2;Temp;Humidity;BMP_temperature;BMP_pressure;BME280_temperature;BME280_humidity;BME280_pressure;Samples;Min_cycle;Max_cycle;Signal;HPM_P1;HPM_P2
2023/05/08 00:00:19;;;;;;;11.82;9.32;;;16.50;99.90;;;;;;5072892;28;20025;-78
2023/05/08 00:02:45;;;;;;;11.73;8.98;;;16.50;99.90;;;;;;5074170;28;20025;-78
2023/05/08 00:05:11;;;;;;;16.15;9.38;;;16.50;99.90;;;;;;5056016;28;20029;-78
2023/05/08 00:07:36;;;;;;;11.90;9.23;;;16.50;99.90;;;;;;5073117;28;20056;-78
2023/05/08 00:10:04;;;;;;;16.52;9.88;;;16.50;99.90;;;;;;5072060;28;20226;-78
2023/05/08 00:12:29;;;;;;;16.10;10.60;;;16.50;99.90;;;;;;5073032;28;20035;-78
2023/05/08 00:14:55;;;;;;;15.63;12.32;;;16.50;99.90;;;;;;5072690;28;20024;-78
2023/05/08 00:17:21;;;;;;;16.95;12.65;;;16.50;99.90;;;;;;5072650;28;20067;-78
2023/05/08 00:19:47;;;;;;;17.13;13.73;;;16.60;99.90;;;;;;5072432;28;20030;-78
2023/05/08 00:22:12;;;;;;;18.38;15.05;;;16.50;99.90;;;;;;5073910;28;20081;-78
2023/05/08 00:24:38;;;;;;;18.52;14.93;;;16.50;99.90;;;;;;5072638;28;20077;-78
2023/05/08 00:27:04;;;;;;;18.15;15.13;;;16.50;99.90;;;;;;5073691;28;20056;-78
2023/05/08 00:29:29;;;;;;;17.92;15.30;;;16.50;99.90;;;;;;5072400;28;20118;-78
2023/05/08 00:31:55;;;;;;;18.75;15.43;;;16.50;99.90;;;;;;5072402;28;20111;-78
2023/05/08 00:34:21;;;;;;;19.40;15.57;;;16.50;99.90;;;;;;5072325;28;20424;-77
2023/05/08 00:36:46;;;;;;;20.17;15.73;;;16.40;99.90;;;;;;5072201;28;20028;-77
2023/05/08 00:39:12;;;;;;;19.92;15.93;;;16.40;99.90;;;;;;5055765;28;20032;-78
2023/05/08 00:41:38;;;;;;;19.02;15.18;;;16.40;99.90;;;;;;5072173;28;20039;-78
2023/05/08 00:44:03;;;;;;;19.30;15.05;;;16.40;99.90;;;;;;5055347;28;20144;-78
2023/05/08 00:46:29;;;;;;;19.58;15.43;;;16.40;99.90;;;;;;5055423;28;20107;-77
2023/05/08 00:48:56;;;;;;;19.08;15.25;;;16.40;99.90;;;;;;5072139;28;20029;-78
2023/05/08 00:51:22;;;;;;;18.10;14.38;;;16.30;99.90;;;;;;5072004;28;20023;-78
2023/05/08 00:53:48;;;;;;;19.10;14.70;;;16.30;99.90;;;;;;5072164;28;20028;-78
2023/05/08 00:56:15;;;;;;;19.35;15.48;;;16.30;99.90;;;;;;5071856;28;20454;-78
2023/05/08 00:58:43;;;;;;;19.55;15.68;;;16.30;99.90;;;;;;5073385;28;20017;-77
2023/05/08 01:01:10;;;;;;;22.25;17.13;;;16.30;99.90;;;;;;5072284;28;20052;-85
2023/05/08 01:03:36;;;;;;;20.95;15.95;;;16.30;99.90;;;;;;5071803;28;20516;-84
2023/05/08 01:06:03;;;;;;;20.17;16.20;;;16.20;99.90;;;;;;5071885;28;20036;-85
2023/05/08 01:08:30;;;;;;;21.58;16.40;;;16.20;99.90;;;;;;5055576;28;20028;-84
2023/05/08 01:11:05;;;;;;;21.20;15.40;;;16.20;99.90;;;;;;5072018;28;20043;-84
2023/05/08 01:13:51;;;;;;;20.48;15.82;;;16.20;99.90;;;;;;5071889;28;20450;-78
2023/05/08 01:16:25;;;;;;;19.42;15.35;;;16.20;99.90;;;;;;5073325;28;20049;-78
2023/05/08 01:19:29;;;;;;;18.08;15.20;;;16.10;99.90;;;;;;5071854;28;20020;-78
2023/05/08 01:22:10;;;;;;;19.65;15.10;;;16.10;99.90;;;;;;5058713;28;20028;-78
2023/05/08 01:24:55;;;;;;;20.15;16.33;;;16.10;99.90;;;;;;5076203;28;20091;-78
2023/05/08 01:27:39;;;;;;;21.90;15.77;;;16.10;99.90;;;;;;5075680;28;20077;-78
2023/05/08 01:30:30;;;;;;;;;;;16.10;99.90;;;;;;5076265;28;20038;-78
2023/05/08 01:33:01;;;;;;;20.40;14.95;;;16.00;99.90;;;;;;5075827;28;19904;-78
2023/05/08 01:35:39;;;;;;;19.40;15.95;;;16.00;99.90;;;;;;5076934;28;20039;-78
2023/05/08 01:38:30;;;;;;;20.23;15.52;;;16.00;99.90;;;;;;5075974;28;20028;-77
2023/05/08 01:41:05;;;;;;;22.05;16.30;;;16.00;99.90;;;;;;5060123;28;20369;-77
2023/05/08 01:43:54;;;;;;;20.13;15.38;;;16.00;99.90;;;;;;5075331;28;20044;-78
2023/05/08 01:46:24;;;;;;;19.05;15.35;;;15.90;99.90;;;;;;5075454;28;20024;-77
2023/05/08 01:49:12;;;;;;;21.65;17.02;;;15.90;99.90;;;;;;5076667;28;20380;-77
2023/05/08 01:51:43;;;;;;;23.15;16.98;;;15.90;99.90;;;;;;5074759;28;20029;-78
2023/05/08 01:54:15;;;;;;;21.30;17.17;;;15.80;99.90;;;;;;5075483;28;20021;-77
2023/05/08 01:56:45;;;;;;;20.05;16.50;;;15.80;99.90;;;;;;5071530;28;20070;-77
2023/05/08 01:59:14;;;;;;;20.55;16.63;;;15.80;99.90;;;;;;5073636;28;20030;-84
2023/05/08 02:01:40;;;;;;;21.15;17.63;;;15.70;99.90;;;;;;5073609;28;20564;-83
2023/05/08 02:04:08;;;;;;;21.35;16.48;;;15.70;99.90;;;;;;5074874;28;20481;-84
2023/05/08 02:06:36;;;;;;;20.60;17.15;;;15.70;99.90;;;;;;5075123;28;20425;-84
2023/05/08 02:09:02;;;;;;;23.60;16.85;;;15.60;99.90;;;;;;5075104;28;20063;-84
2023/05/08 02:11:30;;;;;;;19.67;16.50;;;15.60;99.90;;;;;;5074383;28;20049;-84
2023/05/08 02:14:00;;;;;;;22.45;16.90;;;15.60;99.90;;;;;;5075089;28;20017;-84
2023/05/08 02:16:27;;;;;;;23.92;18.42;;;15.60;99.90;;;;;;5076235;28;20023;-84
2023/05/08 02:18:55;;;;;;;20.80;17.20;;;15.60;99.90;;;;;;5074926;28;20480;-84
2023/05/08 02:21:22;;;;;;;22.25;17.77;;;15.50;99.90;;;;;;5076211;28;20021;-84
2023/05/08 02:23:49;;;;;;;21.23;17.02;;;15.50;99.90;;;;;;5056630;28;20031;-84
2023/05/08 02:26:15;;;;;;;22.63;16.90;;;15.50;99.90;;;;;;5057194;28;20443;-85
2023/05/08 02:28:41;;;;;;;23.48;18.30;;;15.50;99.90;;;;;;5074164;28;20104;-85
2023/05/08 02:31:09;;;;;;;21.42;16.92;;;15.40;99.90;;;;;;5074753;28;20103;-84
2023/05/08 02:33:39;;;;;;;21.08;17.40;;;15.40;99.90;;;;;;5074872;28;20017;-84
2023/05/08 02:36:06;;;;;;;20.30;16.27;;;15.40;99.90;;;;;;5074453;28;20024;-84
2023/05/08 02:38:33;;;;;;;22.92;18.25;;;15.40;99.90;;;;;;5073964;28;20025;-84
2023/05/08 02:41:02;;;;;;;24.65;18.20;;;15.40;99.90;;;;;;5075762;28;20027;-84
2023/05/08 02:43:28;;;;;;;22.80;18.73;;;15.40;99.90;;;;;;5075717;28;20067;-84
2023/05/08 02:46:17;;;;;;;23.45;18.27;;;15.30;99.90;;;;;;5075712;28;20493;-85
2023/05/08 02:48:56;;;;;;;25.60;19.42;;;15.30;99.90;;;;;;5074345;28;20025;-84
2023/05/08 02:51:54;;;;;;;23.00;18.70;;;15.30;99.90;;;;;;5075760;28;20027;-84
2023/05/08 02:54:25;;;;;;;23.48;18.73;;;15.30;99.90;;;;;;5075518;28;20427;-84
2023/05/08 02:57:02;;;;;;;23.13;18.25;;;15.30;99.90;;;;;;5074236;28;20393;-84
2023/05/08 02:59:35;;;;;;;23.15;18.00;;;15.30;99.90;;;;;;5074184;28;20021;-84
2023/05/08 03:02:04;;;;;;;24.05;18.92;;;15.30;99.90;;;;;;5074162;28;20028;-84
2023/05/08 03:04:50;;;;;;;25.42;19.13;;;15.20;99.90;;;;;;5075437;28;20117;-84
2023/05/08 03:07:20;;;;;;;22.33;18.08;;;15.20;99.90;;;;;;5074056;28;20025;-83
2023/05/08 03:09:49;;;;;;;23.45;18.58;;;15.20;99.90;;;;;;5074029;28;20028;-84
2023/05/08 03:12:20;;;;;;;21.30;18.17;;;15.20;99.90;;;;;;5074000;28;20021;-84
2023/05/08 03:14:55;;;;;;;23.60;18.27;;;15.20;99.90;;;;;;5075106;28;20036;-83
2023/05/08 03:17:24;;;;;;;23.00;18.15;;;15.20;99.90;;;;;;5073884;28;20067;-83
2023/05/08 03:19:56;;;;;;;23.50;19.05;;;15.20;99.90;;;;;;5075207;28;20062;-84
2023/05/08 03:22:22;;;;;;;23.50;18.17;;;15.10;99.90;;;;;;5075309;28;20024;-84
2023/05/08 03:24:49;;;;;;;21.77;18.67;;;15.20;99.90;;;;;;5073720;28;20055;-84
2023/05/08 03:27:15;;;;;;;21.90;18.02;;;15.20;99.90;;;;;;5073716;28;20024;-83
2023/05/08 03:29:42;;;;;;;22.40;18.45;;;15.10;99.90;;;;;;5057017;28;20029;-84
2023/05/08 03:32:10;;;;;;;22.95;19.15;;;15.10;99.90;;;;;;5073594;28;20024;-83
2023/05/08 03:34:37;;;;;;;23.73;18.10;;;15.10;99.90;;;;;;5074941;28;20035;-84
2023/05/08 03:37:04;;;;;;;21.95;17.15;;;15.10;99.90;;;;;;5073716;28;20380;-84
2023/05/08 03:39:30;;;;;;;22.13;18.35;;;15.10;99.90;;;;;;5057031;28;20063;-83
2023/05/08 03:41:56;;;;;;;23.20;18.25;;;15.10;99.90;;;;;;5074687;28;20512;-83
2023/05/08 03:44:23;;;;;;;24.27;18.88;;;15.00;99.90;;;;;;5072887;28;20072;-84
2023/05/08 03:46:51;;;;;;;24.15;19.17;;;15.10;99.90;;;;;;5073271;28;20558;-83
2023/05/08 03:49:17;;;;;;;21.90;18.33;;;15.10;99.90;;;;;;5074557;28;20131;-83
2023/05/08 03:51:44;;;;;;;22.52;18.10;;;15.10;99.90;;;;;;5076623;28;20480;-83
2023/05/08 03:54:09;;;;;;;22.48;18.65;;;15.10;99.90;;;;;;5076319;28;20024;-84
2023/05/08 03:56:35;;;;;;;22.10;18.55;;;15.00;99.90;;;;;;5073479;28;20028;-83
2023/05/08 03:59:14;;;;;;;23.42;18.63;;;15.10;99.90;;;;;;5056793;28;20029;-83
2023/05/08 04:02:14;;;;;;;21.70;17.55;;;15.00;99.90;;;;;;5073201;28;20024;-84
2023/05/08 04:04:42;;;;;;;21.65;17.23;;;15.10;99.90;;;;;;5074043;28;20064;-83
2023/05/08 04:07:12;;;;;;;23.63;18.73;;;15.00;99.90;;;;;;5074186;28;20032;-83
2023/05/08 04:09:50;;;;;;;23.33;18.60;;;15.10;99.90;;;;;;5072737;28;20461;-83
2023/05/08 04:12:20;;;;;;;25.20;19.08;;;15.00;99.90;;;;;;5072689;28;20058;-84
2023/05/08 04:15:00;;;;;;;22.25;19.02;;;15.10;99.90;;;;;;5074094;28;20024;-83
2023/05/08 04:17:41;;;;;;;24.15;19.38;;;15.00;99.90;;;;;;5073827;28;20043;-83
2023/05/08 04:20:11;;;;;;;24.95;18.95;;;15.00;99.90;;;;;;5073915;28;20024;-83
2023/05/08 04:22:39;;;;;;;24.20;18.60;;;15.00;99.90;;;;;;5072650;28;20419;-83
2023/05/08 04:25:07;;;;;;;26.40;19.65;;;15.00;99.90;;;;;;5079340;28;20029;-83
2023/05/08 04:27:34;;;;;;;23.30;19.25;;;15.00;99.90;;;;;;5074348;28;20024;-83
2023/05/08 04:30:01;;;;;;;22.83;18.98;;;14.90;99.90;;;;;;5073896;28;20017;-83
2023/05/08 04:32:28;;;;;;;23.17;19.10;;;14.90;99.90;;;;;;5056146;28;20055;-83
2023/05/08 04:34:55;;;;;;;23.17;19.15;;;14.90;99.90;;;;;;5072907;28;20068;-83
2023/05/08 04:37:33;;;;;;;21.60;18.35;;;14.90;99.90;;;;;;5072288;28;20047;-83
2023/05/08 04:40:00;;;;;;;22.40;18.65;;;14.90;99.90;;;;;;5072302;28;20063;-83
2023/05/08 04:42:26;;;;;;;26.88;20.70;;;14.90;99.90;;;;;;5055793;28;20029;-84
2023/05/08 04:44:52;;;;;;;24.00;19.15;;;14.90;99.90;;;;;;5071983;28;20049;-83
2023/05/08 04:47:19;;;;;;;26.05;19.98;;;14.90;99.90;;;;;;5072147;28;20029;-84
2023/05/08 04:49:44;;;;;;;26.33;20.23;;;14.80;99.90;;;;;;5072105;28;20031;-84
2023/05/08 04:52:10;;;;;;;23.83;19.77;;;14.80;99.90;;;;;;5055525;28;20028;-84
2023/05/08 04:54:36;;;;;;;26.38;19.23;;;14.80;99.90;;;;;;5073418;28;20078;-82
2023/05/08 04:57:02;;;;;;;23.75;19.85;;;14.90;99.90;;;;;;5071651;28;20036;-83
2023/05/08 04:59:28;;;;;;;25.00;21.02;;;14.80;99.90;;;;;;5073290;28;20044;-84
2023/05/08 05:01:54;;;;;;;23.98;20.10;;;14.80;99.90;;;;;;5072192;28;20034;-83
2023/05/08 05:04:23;;;;;;;23.65;20.30;;;14.90;99.90;;;;;;5073228;28;20025;-83
2023/05/08 05:06:49;;;;;;;23.70;20.10;;;14.90;99.90;;;;;;5073099;28;20043;-84
2023/05/08 05:09:15;;;;;;;24.13;19.73;;;14.90;99.90;;;;;;5072067;28;20025;-83
2023/05/08 05:11:40;;;;;;;27.33;20.48;;;14.90;99.90;;;;;;5073240;28;20032;-83
2023/05/08 05:14:06;;;;;;;23.55;19.60;;;14.90;99.90;;;;;;5071916;28;20052;-83
2023/05/08 05:16:32;;;;;;;24.60;20.33;;;14.90;99.90;;;;;;5071918;28;20032;-83
2023/05/08 05:18:58;;;;;;;25.63;21.05;;;14.90;99.90;;;;;;5071741;28;20035;-82
2023/05/08 05:21:24;;;;;;;23.33;19.40;;;14.90;99.90;;;;;;5070886;28;20021;-82
2023/05/08 05:23:50;;;;;;;24.05;20.73;;;14.90;99.90;;;;;;5068262;28;20380;-82
2023/05/08 05:26:16;;;;;;;24.10;19.58;;;14.90;99.90;;;;;;5071350;28;20035;-84
2023/05/08 05:28:41;;;;;;;26.40;20.50;;;14.90;99.90;;;;;;5061464;28;20036;-82
2023/05/08 05:31:08;;;;;;;24.05;19.77;;;15.00;99.90;;;;;;5071903;28;20059;-83
2023/05/08 05:33:34;;;;;;;23.75;18.40;;;15.00;99.90;;;;;;5070196;28;20480;-82
2023/05/08 05:35:59;;;;;;;25.30;19.58;;;15.00;99.90;;;;;;5071797;28;20036;-82
2023/05/08 05:38:25;;;;;;;23.27;20.17;;;15.00;99.90;;;;;;5071923;28;20032;-83
2023/05/08 05:40:50;;;;;;;25.35;20.98;;;15.10;99.90;;;;;;5067969;28;20046;-83
2023/05/08 05:43:16;;;;;;;23.55;19.40;;;15.10;99.90;;;;;;5065014;28;20036;-83
2023/05/08 05:45:42;;;;;;;24.25;20.52;;;15.10;99.90;;;;;;5071528;28;20036;-83
2023/05/08 05:48:07;;;;;;;22.45;18.92;;;15.10;99.90;;;;;;5070237;28;20037;-83
2023/05/08 05:50:33;;;;;;;25.98;20.52;;;15.10;99.90;;;;;;5062468;28;20020;-82
2023/05/08 05:52:59;;;;;;;24.48;19.20;;;15.20;99.90;;;;;;5069487;28;20103;-82
2023/05/08 05:55:25;;;;;;;24.73;19.65;;;15.20;99.90;;;;;;5065395;28;20115;-83
2023/05/08 05:57:51;;;;;;;23.42;20.00;;;15.30;99.90;;;;;;5053792;28;20028;-83
2023/05/08 06:00:17;;;;;;;22.75;19.60;;;15.30;99.90;;;;;;5066870;28;20741;-83
2023/05/08 06:02:42;;;;;;;25.83;20.17;;;15.30;99.90;;;;;;5053788;28;20054;-83
2023/05/08 06:05:09;;;;;;;23.10;20.60;;;15.40;99.90;;;;;;5054076;28;20040;-76
2023/05/08 06:07:35;;;;;;;23.35;19.95;;;15.40;99.90;;;;;;5073695;28;20032;-83
2023/05/08 06:10:01;;;;;;;23.42;20.63;;;15.40;99.90;;;;;;5072921;28;20033;-82
2023/05/08 06:12:27;;;;;;;25.55;21.38;;;15.50;99.90;;;;;;5057508;28;20024;-77
2023/05/08 06:14:53;;;;;;;25.83;21.13;;;15.50;99.90;;;;;;5073921;28;20063;-77
2023/05/08 06:17:19;;;;;;;27.55;21.85;;;15.50;99.90;;;;;;5075265;28;20473;-78
2023/05/08 06:19:49;;;;;;;26.63;22.35;;;15.60;99.90;;;;;;5073652;28;20047;-78
2023/05/08 06:22:17;;;;;;;28.73;20.90;;;15.60;99.90;;;;;;5073188;28;20431;-78
2023/05/08 06:24:42;;;;;;;29.80;22.58;;;15.70;99.90;;;;;;5075152;28;20030;-78
2023/05/08 06:27:09;;;;;;;27.15;21.45;;;15.70;99.90;;;;;;5074134;28;20033;-78
2023/05/08 06:29:34;;;;;;;30.63;22.05;;;15.80;99.90;;;;;;5075799;28;20052;-78
2023/05/08 06:32:00;;;;;;;33.75;23.92;;;15.80;99.90;;;;;;5075749;28;20052;-78
2023/05/08 06:34:26;;;;;;;33.05;23.25;;;15.90;99.90;;;;;;5057729;28;20056;-78
2023/05/08 06:36:52;;;;;;;32.60;23.90;;;15.90;99.90;;;;;;5075336;28;20086;-78
2023/05/08 06:39:17;;;;;;;33.20;24.30;;;16.00;99.90;;;;;;5075403;28;20027;-79
2023/05/08 06:41:47;;;;;;;35.90;24.83;;;16.00;99.90;;;;;;5074492;28;20037;-78
2023/05/08 06:44:13;;;;;;;39.83;25.60;;;16.10;99.90;;;;;;5074277;28;20043;-78
2023/05/08 06:46:39;;;;;;;39.05;26.13;;;16.10;99.90;;;;;;5074701;28;20024;-78
2023/05/08 06:49:05;;;;;;;33.60;24.38;;;16.20;99.90;;;;;;5075796;28;20073;-76
2023/05/08 06:51:31;;;;;;;37.05;24.42;;;16.20;99.90;;;;;;5073911;28;20048;-80
2023/05/08 06:53:57;;;;;;;39.55;26.20;;;16.30;99.90;;;;;;5072560;28;20399;-80
2023/05/08 06:56:23;;;;;;;45.38;28.65;;;16.40;99.90;;;;;;5073739;28;20033;-80
2023/05/08 06:58:49;;;;;;;38.78;24.45;;;16.40;99.90;;;;;;5073644;28;20105;-80
2023/05/08 07:01:15;;;;;;;39.28;27.05;;;16.50;99.90;;;;;;5074159;28;20035;-80
2023/05/08 07:03:40;;;;;;;38.10;26.33;;;16.50;99.90;;;;;;5075387;28;20028;-80
2023/05/08 07:06:10;;;;;;;33.97;24.88;;;16.60;99.90;;;;;;5074094;28;20040;-80
2023/05/08 07:08:36;;;;;;;39.22;24.92;;;16.70;99.90;;;;;;5073780;28;20552;-80
2023/05/08 07:11:02;;;;;;;36.17;24.33;;;16.80;99.90;;;;;;5075193;28;20025;-78
2023/05/08 07:13:29;;;;;;;33.80;23.90;;;17.00;99.90;;;;;;5073931;28;20036;-80
2023/05/08 07:15:55;;;;;;;33.75;23.35;;;17.10;99.90;;;;;;5073707;28;20032;-80
2023/05/08 07:18:20;;;;;;;33.60;23.33;;;17.30;99.90;;;;;;5073195;28;20033;-80
2023/05/08 07:20:46;;;;;;;34.40;22.30;;;17.40;99.90;;;;;;5073669;28;20032;-80
2023/05/08 07:23:12;;;;;;;29.40;21.77;;;17.60;99.90;;;;;;5073844;28;20113;-79
2023/05/08 07:25:37;;;;;;;28.73;21.98;;;17.70;99.90;;;;;;5073828;28;20082;-80
2023/05/08 07:28:03;;;;;;;29.83;20.58;;;17.70;99.90;;;;;;5073715;28;20021;-80
2023/05/08 07:30:29;;;;;;;35.13;22.45;;;17.80;99.90;;;;;;5073590;28;20098;-79
2023/05/08 07:32:55;;;;;;;32.80;22.95;;;17.90;99.90;;;;;;5074830;28;20096;-80
2023/05/08 07:35:20;;;;;;;31.13;22.13;;;18.00;99.90;;;;;;5073473;28;20028;-80
2023/05/08 07:37:46;;;;;;;33.88;23.88;;;18.00;99.90;;;;;;5056669;28;20078;-80
2023/05/08 07:40:12;;;;;;;34.33;23.67;;;18.10;99.90;;;;;;5073409;28;20090;-80
2023/05/08 07:42:39;;;;;;;28.58;21.40;;;18.10;99.90;;;;;;5056493;28;20025;-79
2023/05/08 07:45:06;;;;;;;31.35;22.25;;;18.20;99.90;;;;;;5074313;28;20051;-79
2023/05/08 07:47:32;;;;;;;31.42;21.88;;;18.30;99.90;;;;;;5073085;28;20043;-80
2023/05/08 07:49:57;;;;;;;30.48;21.48;;;18.40;99.90;;;;;;5073217;28;20034;-79
2023/05/08 07:52:23;;;;;;;30.75;23.85;;;18.40;99.90;;;;;;5073262;28;20032;-80
2023/05/08 07:54:48;;;;;;;31.70;23.00;;;18.50;99.90;;;;;;5073211;28;20028;-78
2023/05/08 07:57:14;;;;;;;29.77;21.25;;;18.50;99.90;;;;;;5056239;28;20487;-79
2023/05/08 07:59:40;;;;;;;35.35;21.85;;;18.60;99.90;;;;;;5072556;28;20029;-80
2023/05/08 08:02:06;;;;;;;28.27;21.13;;;18.60;99.90;;;;;;5072548;28;20401;-80
2023/05/08 08:04:32;;;;;;;30.80;22.63;;;18.70;99.90;;;;;;5056139;28;20028;-81
2023/05/08 08:06:57;;;;;;;29.13;22.83;;;18.70;99.90;;;;;;5072998;28;20025;-82
2023/05/08 08:09:23;;;;;;;31.50;22.80;;;18.70;99.90;;;;;;5072822;28;20427;-80
2023/05/08 08:11:49;;;;;;;25.95;20.88;;;18.80;99.90;;;;;;5074010;28;20021;-81
2023/05/08 08:14:15;;;;;;;29.45;22.10;;;18.70;99.70;;;;;;5073768;28;20013;-80
2023/05/08 08:16:41;;;;;;;31.70;23.38;;;18.80;99.60;;;;;;5072659;28;20086;-82
2023/05/08 08:19:07;;;;;;;30.35;23.20;;;18.80;99.60;;;;;;5074219;28;20016;-81
2023/05/08 08:21:33;;;;;;;28.10;22.33;;;18.90;99.60;;;;;;5072663;28;20427;-82
2023/05/08 08:23:59;;;;;;;29.50;22.90;;;18.90;99.40;;;;;;5055682;28;20476;-82
2023/05/08 08:26:24;;;;;;;28.20;21.50;;;19.00;99.40;;;;;;5055810;28;20025;-81
2023/05/08 08:28:50;;;;;;;30.77;24.27;;;19.00;99.20;;;;;;5055638;28;20013;-80
2023/05/08 08:31:16;;;;;;;30.70;23.90;;;19.10;99.10;;;;;;5071220;28;20027;-80
2023/05/08 08:33:42;;;;;;;29.65;24.42;;;19.20;99.10;;;;;;5071970;28;20142;-80
2023/05/08 08:36:15;;;;;;;27.25;22.50;;;19.30;98.90;;;;;;5071956;28;20083;-80
2023/05/08 08:38:41;;;;;;;28.33;23.98;;;19.40;98.70;;;;;;5071965;28;20073;-81
2023/05/08 08:41:07;;;;;;;28.88;23.92;;;19.40;98.40;;;;;;5071952;28;20028;-80
2023/05/08 08:43:33;;;;;;;27.63;23.35;;;19.50;98.30;;;;;;5071551;28;20365;-80
2023/05/08 08:46:08;;;;;;;29.77;25.23;;;19.50;98.20;;;;;;5071978;28;20099;-80
2023/05/08 08:48:36;;;;;;;28.05;24.02;;;19.70;98.10;;;;;;5072073;28;20020;-81
2023/05/08 08:51:12;;;;;;;28.17;24.15;;;19.80;98.20;;;;;;5071955;28;20051;-81
2023/05/08 08:53:43;;;;;;;26.83;22.67;;;19.90;98.20;;;;;;5072073;28;20091;-81
2023/05/08 08:56:11;;;;;;;26.60;22.42;;;20.10;98.20;;;;;;5073312;28;20078;-80
2023/05/08 08:58:50;;;;;;;27.83;23.10;;;20.30;97.90;;;;;;5071897;28;20442;-84
2023/05/08 09:01:18;;;;;;;25.45;21.35;;;20.40;97.80;;;;;;5073159;28;20016;-84
2023/05/08 09:03:44;;;;;;;26.65;21.30;;;20.60;97.60;;;;;;5055166;28;20032;-83
2023/05/08 09:06:11;;;;;;;25.83;21.00;;;20.70;97.20;;;;;;5073051;28;20032;-83
2023/05/08 09:08:37;;;;;;;25.15;20.90;;;20.80;96.90;;;;;;5071929;28;20507;-83
2023/05/08 09:11:02;;;;;;;29.10;22.70;;;20.90;96.50;;;;;;5073103;28;20029;-83
2023/05/08 09:13:29;;;;;;;29.05;21.33;;;21.00;96.10;;;;;;5055090;28;20035;-83
2023/05/08 09:15:57;;;;;;;27.98;22.80;;;21.10;95.90;;;;;;5073322;28;20077;-83
2023/05/08 09:18:22;;;;;;;28.08;20.55;;;21.20;95.80;;;;;;5071141;28;20028;-83
2023/05/08 09:20:49;;;;;;;27.83;20.42;;;21.30;95.60;;;;;;5073025;28;20549;-82
2023/05/08 09:23:16;;;;;;;26.10;18.77;;;21.40;94.90;;;;;;5054945;28;20024;-83
2023/05/08 09:25:46;;;;;;;26.33;19.60;;;21.50;94.40;;;;;;5071811;28;20115;-79
2023/05/08 09:28:25;;;;;;;23.02;18.75;;;21.50;94.20;;;;;;5054929;28;20504;-81
2023/05/08 09:30:57;;;;;;;24.33;18.02;;;21.60;94.00;;;;;;5072984;28;20027;-81
2023/05/08 09:33:27;;;;;;;28.15;19.13;;;21.60;93.50;;;;;;5071447;28;20075;-79
2023/05/08 09:35:56;;;;;;;24.40;18.52;;;21.70;93.40;;;;;;5071525;28;20020;-81
2023/05/08 09:38:31;;;;;;;22.88;16.63;;;21.80;93.10;;;;;;5070892;28;20033;-79
2023/05/08 09:41:14;;;;;;;20.17;15.90;;;21.70;92.70;;;;;;5071975;28;20115;-79
2023/05/08 09:43:44;;;;;;;23.00;15.85;;;21.80;92.30;;;;;;5058276;28;20511;-80
2023/05/08 09:46:24;;;;;;;25.02;17.60;;;21.80;92.20;;;;;;5075228;28;20044;-83
2023/05/08 09:48:51;;;;;;;25.33;18.52;;;21.90;91.90;;;;;;5076783;28;20036;-81
2023/05/08 09:51:17;;;;;;;22.92;19.33;;;21.90;91.60;;;;;;5076922;28;20059;-82
2023/05/08 09:53:43;;;;;;;22.75;17.23;;;22.00;91.60;;;;;;5076707;28;20057;-80
2023/05/08 09:56:09;;;;;;;22.40;18.48;;;21.90;91.70;;;;;;5076293;28;20036;-83
2023/05/08 09:58:42;;;;;;;23.92;19.95;;;22.00;91.30;;;;;;5074991;28;20487;-84
2023/05/08 10:01:33;;;;;;;22.90;19.40;;;22.00;91.00;;;;;;5075792;28;20032;-83
2023/05/08 10:03:59;;;;;;;20.85;17.33;;;22.00;90.80;;;;;;5074726;28;20044;-81
2023/05/08 10:06:27;;;;;;;23.48;19.33;;;22.00;90.80;;;;;;5075368;28;20405;-81
2023/05/08 10:09:12;;;;;;;22.02;19.50;;;22.00;90.50;;;;;;5076444;28;20047;-82
2023/05/08 10:11:57;;;;;;;23.15;19.48;;;22.00;90.30;;;;;;5075035;28;20422;-81
2023/05/08 10:14:23;;;;;;;23.17;19.92;;;21.90;90.10;;;;;;5076194;28;20504;-82
2023/05/08 10:16:51;;;;;;;27.25;24.38;;;21.80;90.10;;;;;;5074301;28;20032;-82
2023/05/08 10:19:22;;;;;;;27.40;24.30;;;21.70;90.10;;;;;;5074289;28;20392;-82
2023/05/08 10:21:50;;;;;;;28.23;25.05;;;21.50;90.10;;;;;;5074624;28;20437;-83
2023/05/08 10:24:25;;;;;;;31.20;27.88;;;21.40;90.20;;;;;;5074407;28;20024;-82
2023/05/08 10:27:18;;;;;;;28.90;25.90;;;21.20;90.50;;;;;;5075602;28;20023;-82
2023/05/08 10:29:52;;;;;;;30.95;26.35;;;21.10;90.80;;;;;;5074891;28;20025;-82
2023/05/08 10:32:20;;;;;;;29.67;26.52;;;21.00;90.90;;;;;;5074671;28;20043;-84
2023/05/08 10:34:58;;;;;;;31.60;26.48;;;20.90;91.00;;;;;;5074945;28;20060;-81
2023/05/08 10:37:24;;;;;;;32.58;28.60;;;20.80;91.10;;;;;;5072164;28;20040;-82
2023/05/08 10:39:52;;;;;;;26.02;23.30;;;20.70;91.30;;;;;;5074686;28;20035;-83
2023/05/08 10:42:19;;;;;;;32.67;26.67;;;20.70;91.50;;;;;;5075769;28;20033;-82
2023/05/08 10:44:45;;;;;;;26.23;23.42;;;20.60;91.60;;;;;;5057448;28;20048;-83
2023/05/08 10:47:23;;;;;;;31.63;28.15;;;20.50;91.70;;;;;;5075675;28;20028;-84
2023/05/08 10:50:08;;;;;;;31.85;28.38;;;20.40;92.00;;;;;;5074506;28;20423;-83
2023/05/08 10:52:42;;;;;;;34.67;29.13;;;20.30;92.30;;;;;;5074360;28;20020;-83
2023/05/08 10:55:28;;;;;;;30.17;26.95;;;20.30;92.50;;;;;;5074544;28;20036;-85
2023/05/08 10:58:05;;;;;;;27.13;24.23;;;20.20;92.60;;;;;;5074037;28;20127;-84
2023/05/08 11:00:56;;;;;;;29.27;26.13;;;20.20;92.80;;;;;;5075164;28;20365;-83
2023/05/08 11:03:26;;;;;;;30.55;25.80;;;20.30;93.10;;;;;;5075424;28;20031;-83
2023/05/08 11:05:54;;;;;;;30.45;25.63;;;20.20;93.20;;;;;;5075146;28;20491;-83
2023/05/08 11:08:24;;;;;;;31.83;28.52;;;20.30;93.30;;;;;;5073658;28;20024;-83
2023/05/08 11:11:03;;;;;;;31.35;28.08;;;20.40;93.30;;;;;;5073752;28;20465;-83
2023/05/08 11:13:36;;;;;;;30.73;27.42;;;20.50;93.30;;;;;;5072508;28;20028;-80
2023/05/08 11:16:02;;;;;;;30.95;27.75;;;20.60;93.40;;;;;;5071444;28;20026;-84
2023/05/08 11:18:28;;;;;;;33.80;28.88;;;20.70;93.30;;;;;;5073932;28;20035;-84
2023/05/08 11:21:13;;;;;;;33.13;29.52;;;20.70;93.20;;;;;;5074017;28;20047;-83
2023/05/08 11:23:38;;;;;;;30.63;27.33;;;20.90;93.40;;;;;;5073503;28;20043;-82
2023/05/08 11:26:10;;;;;;;31.35;27.48;;;21.20;93.20;;;;;;5074918;28;20032;-81
2023/05/08 11:28:55;;;;;;;29.83;26.63;;;21.30;93.00;;;;;;5073654;28;20115;-83
2023/05/08 11:31:21;;;;;;;28.67;25.67;;;21.50;92.50;;;;;;5074888;28;20020;-81
2023/05/08 11:33:47;;;;;;;28.80;25.65;;;21.60;92.30;;;;;;5074744;28;20051;-82
2023/05/08 11:36:19;;;;;;;29.08;25.98;;;21.70;92.00;;;;;;5073514;28;20020;-82
2023/05/08 11:39:06;;;;;;;25.15;22.55;;;21.90;91.90;;;;;;5072824;28;20028;-85
2023/05/08 11:41:32;;;;;;;28.70;25.70;;;22.10;91.50;;;;;;5074563;28;20024;-82
2023/05/08 11:44:04;;;;;;;27.55;22.40;;;22.20;91.20;;;;;;5073072;28;20089;-83
2023/05/08 11:46:54;;;;;;;26.08;23.15;;;22.40;90.90;;;;;;5074271;28;20419;-83
2023/05/08 11:49:22;;;;;;;21.77;19.58;;;22.70;90.40;;;;;;5073169;28;20023;-84
2023/05/08 11:51:49;;;;;;;21.17;19.02;;;23.10;90.30;;;;;;5074169;28;20020;-83
2023/05/08 11:54:17;;;;;;;22.55;19.95;;;23.60;89.70;;;;;;5072909;28;20025;-83
2023/05/08 11:56:47;;;;;;;19.55;16.40;;;23.90;87.60;;;;;;5073747;28;20469;-84
2023/05/08 11:59:13;;;;;;;19.77;17.75;;;24.40;86.10;;;;;;5073058;28;20374;-83
2023/05/08 12:01:39;;;;;;;16.20;14.45;;;25.00;84.40;;;;;;5073308;28;20119;-83
2023/05/08 12:04:07;;;;;;;15.93;14.35;;;25.70;83.20;;;;;;5073018;28;20047;-83
2023/05/08 12:06:37;;;;;;;16.60;13.95;;;26.20;81.10;;;;;;5073398;28;20477;-83
2023/05/08 12:09:08;;;;;;;14.65;13.25;;;26.60;78.90;;;;;;5072794;28;20043;-83
2023/05/08 12:11:34;;;;;;;16.20;12.88;;;27.00;76.70;;;;;;5073044;28;20028;-82
2023/05/08 12:14:00;;;;;;;15.27;12.90;;;27.30;74.10;;;;;;5072757;28;20117;-81
2023/05/08 12:16:26;;;;;;;15.82;14.15;;;27.10;71.50;;;;;;5073915;28;20034;-82
2023/05/08 12:18:54;;;;;;;13.93;12.27;;;26.80;69.20;;;;;;5072665;28;20618;-84
2023/05/08 12:21:20;;;;;;;15.77;12.73;;;26.50;68.90;;;;;;5072641;28;20116;-81
2023/05/08 12:23:46;;;;;;;14.70;12.63;;;26.30;68.90;;;;;;5055907;28;20615;-84
2023/05/08 12:26:11;;;;;;;14.35;12.43;;;26.10;68.60;;;;;;5071651;28;20130;-82
2023/05/08 12:28:38;;;;;;;14.70;13.20;;;26.00;68.40;;;;;;5071956;28;20077;-82
2023/05/08 12:31:04;;;;;;;14.52;12.35;;;25.80;68.00;;;;;;5072463;28;20371;-83
2023/05/08 12:33:31;;;;;;;14.60;13.05;;;25.70;67.80;;;;;;5072458;28;20028;-87
2023/05/08 12:35:58;;;;;;;15.02;13.07;;;25.70;67.80;;;;;;5071988;28;20029;-85
2023/05/08 12:38:27;;;;;;;16.00;14.10;;;25.60;67.70;;;;;;5073485;28;20020;-80